createdAt,value
2023-03-17T00:00:02.565Z,22.10
2023-03-17T00:03:27.752Z,21.90
2023-03-17T00:06:45.370Z,22.73
2023-03-17T00:10:02.714Z,23.65
2023-03-17T00:13:21.297Z,21.85
2023-03-17T00:19:54.259Z,22.23
2023-03-17T00:23:11.395Z,22.30
2023-03-17T00:26:27.778Z,23.00
2023-03-17T00:29:44.651Z,22.78
2023-03-17T00:33:03.882Z,22.18
2023-03-17T00:36:23.324Z,22.68
2023-03-17T00:39:39.785Z,22.45
2023-03-17T00:42:56.717Z,24.15
2023-03-17T00:46:20.773Z,24.13
2023-03-17T00:49:37.336Z,24.05
2023-03-17T00:52:55.034Z,23.02
2023-03-17T00:56:16.497Z,23.60
2023-03-17T00:59:38.863Z,22.68
2023-03-17T01:02:57.776Z,22.93
2023-03-17T01:06:18.486Z,24.77
2023-03-17T01:09:37.295Z,23.75
2023-03-17T01:12:53.889Z,23.47
2023-03-17T01:16:11.455Z,22.98
2023-03-17T01:19:27.563Z,22.80
2023-03-17T01:22:44.666Z,23.53
2023-03-17T01:26:01.491Z,23.80
2023-03-17T01:29:18.356Z,22.93
2023-03-17T01:32:34.590Z,22.38
2023-03-17T01:35:52.328Z,24.28
2023-03-17T01:39:08.710Z,22.08
2023-03-17T01:42:24.882Z,23.73
2023-03-17T01:46:23.875Z,23.13
2023-03-17T01:49:43.958Z,24.88
2023-03-17T01:53:00.432Z,25.18
2023-03-17T01:56:17.645Z,23.93
2023-03-17T01:59:40.312Z,22.70
2023-03-17T02:02:59.790Z,23.60
2023-03-17T02:06:17.748Z,25.58
2023-03-17T02:09:35.546Z,26.40
2023-03-17T02:12:54.045Z,23.88
2023-03-17T02:16:11.511Z,24.67
2023-03-17T02:19:28.152Z,25.28
2023-03-17T02:22:45.406Z,25.20
2023-03-17T02:26:04.839Z,25.13
2023-03-17T02:29:22.043Z,25.08
2023-03-17T02:32:39.931Z,24.70
2023-03-17T02:35:57.322Z,24.28
2023-03-17T02:39:14.524Z,24.13
2023-03-17T02:42:30.906Z,24.03
2023-03-17T02:45:47.162Z,24.00
2023-03-17T02:49:04.581Z,24.90
2023-03-17T02:52:22.253Z,23.90
2023-03-17T02:55:38.499Z,26.00
2023-03-17T02:58:54.881Z,25.80
2023-03-17T03:02:12.318Z,24.53
2023-03-17T03:05:30.134Z,24.75
2023-03-17T03:08:46.927Z,24.90
2023-03-17T03:12:03.113Z,24.48
2023-03-17T03:15:21.713Z,23.93
2023-03-17T03:18:38.865Z,24.53
2023-03-17T03:21:54.911Z,25.25
2023-03-17T03:25:11.750Z,25.00
2023-03-17T03:28:27.926Z,25.38
2023-03-17T03:31:44.299Z,25.05
2023-03-17T03:35:00.629Z,24.50
2023-03-17T03:38:16.936Z,24.80
2023-03-17T03:41:32.993Z,24.93
2023-03-17T03:44:49.346Z,24.78
2023-03-17T03:48:06.882Z,26.63
2023-03-17T03:51:24.561Z,28.33
2023-03-17T03:54:40.601Z,28.60
2023-03-17T03:57:56.815Z,29.55
2023-03-17T04:01:15.879Z,27.48
2023-03-17T04:04:32.362Z,29.48
2023-03-17T04:07:49.154Z,29.88
2023-03-17T04:11:06.248Z,30.90
2023-03-17T04:14:24.504Z,36.45
2023-03-17T04:17:41.934Z,39.78
2023-03-17T04:20:58.089Z,40.33
2023-03-17T04:24:17.788Z,41.23
2023-03-17T04:27:33.961Z,43.60
2023-03-17T04:30:53.028Z,42.85
2023-03-17T04:34:09.895Z,44.13
2023-03-17T04:37:28.967Z,43.28
2023-03-17T04:40:45.078Z,45.18
2023-03-17T04:44:01.049Z,41.98
2023-03-17T04:47:17.796Z,45.18
2023-03-17T04:50:34.181Z,45.15
2023-03-17T04:53:50.269Z,41.83
2023-03-17T04:57:06.796Z,41.98
2023-03-17T05:00:25.051Z,44.38
2023-03-17T05:03:41.778Z,44.63
2023-03-17T05:06:59.134Z,44.30
2023-03-17T05:10:17.845Z,43.98
2023-03-17T05:13:35.997Z,44.27
2023-03-17T05:16:54.173Z,45.93
2023-03-17T05:20:14.871Z,45.43
2023-03-17T05:23:31.352Z,44.78
2023-03-17T05:26:47.552Z,45.50
2023-03-17T05:30:19.196Z,45.03
2023-03-17T05:33:35.526Z,46.03
2023-03-17T05:36:52.505Z,47.58
2023-03-17T05:40:09.463Z,47.13
2023-03-17T05:43:25.485Z,46.28
2023-03-17T05:46:41.864Z,45.78
2023-03-17T05:49:58.070Z,47.63
2023-03-17T05:53:14.359Z,46.33
2023-03-17T05:56:33.688Z,45.43
2023-03-17T05:59:53.195Z,45.05
2023-03-17T06:03:09.545Z,44.00
2023-03-17T06:06:26.598Z,41.58
2023-03-17T06:09:43.222Z,39.85
2023-03-17T06:13:00.708Z,38.18
2023-03-17T06:16:19.515Z,37.55
2023-03-17T06:19:36.056Z,41.10
2023-03-17T06:23:03.820Z,38.20
2023-03-17T06:26:12.735Z,38.53
2023-03-17T06:29:31.018Z,40.35
2023-03-17T06:32:48.497Z,38.53
2023-03-17T06:36:05.114Z,37.18
2023-03-17T06:39:23.779Z,35.88
2023-03-17T06:42:40.091Z,34.98
2023-03-17T06:45:56.647Z,34.63
2023-03-17T06:49:14.408Z,31.65
2023-03-17T06:52:32.906Z,31.63
2023-03-17T06:55:49.290Z,30.98
2023-03-17T06:59:05.713Z,27.73
2023-03-17T07:02:22.058Z,27.95
2023-03-17T07:05:45.057Z,26.93
2023-03-17T07:09:02.371Z,26.08
2023-03-17T07:12:19.463Z,25.63
2023-03-17T07:15:38.974Z,24.98
2023-03-17T07:18:57.473Z,25.83
2023-03-17T07:22:15.560Z,25.20
2023-03-17T07:25:32.080Z,24.50
2023-03-17T07:28:48.912Z,23.63
2023-03-17T07:32:06.253Z,22.33
2023-03-17T07:35:23.510Z,23.40
2023-03-17T07:38:39.648Z,21.38
2023-03-17T07:41:56.554Z,20.73
2023-03-17T07:45:15.676Z,19.78
2023-03-17T07:48:34.087Z,20.03
2023-03-17T07:51:50.125Z,19.20
2023-03-17T07:55:10.612Z,19.63
2023-03-17T07:58:27.553Z,20.03
2023-03-17T08:01:47.064Z,19.08
2023-03-17T08:05:03.990Z,18.15
2023-03-17T08:08:22.087Z,19.38
2023-03-17T08:11:38.592Z,16.88
2023-03-17T08:14:56.137Z,14.38
2023-03-17T08:18:14.338Z,9.05
2023-03-17T08:21:31.740Z,7.23
2023-03-17T08:24:47.647Z,6.88
2023-03-17T08:28:05.420Z,6.53
2023-03-17T08:31:24.580Z,6.20
2023-03-17T08:34:52.392Z,6.90
2023-03-17T08:38:10.659Z,6.80
2023-03-17T08:41:30.198Z,5.83
2023-03-17T08:44:48.216Z,5.70
2023-03-17T08:48:05.020Z,6.20
2023-03-17T08:51:24.292Z,6.50
2023-03-17T08:54:40.066Z,5.60
2023-03-17T08:57:56.360Z,6.53
2023-03-17T09:01:15.409Z,6.25
2023-03-17T09:04:31.686Z,5.13
2023-03-17T09:07:49.768Z,4.93
2023-03-17T09:11:06.521Z,4.55
2023-03-17T09:14:25.184Z,3.58
2023-03-17T09:17:42.215Z,4.23
2023-03-17T09:20:58.732Z,4.63
2023-03-17T09:24:17.753Z,4.05
2023-03-17T09:27:34.123Z,4.05
2023-03-17T09:30:52.500Z,21.35
2023-03-17T09:34:10.027Z,14.53
2023-03-17T09:37:26.962Z,4.55
2023-03-17T09:40:51.420Z,3.90
2023-03-17T09:44:14.432Z,3.83
2023-03-17T09:48:12.814Z,3.80
2023-03-17T09:51:29.790Z,3.73
2023-03-17T09:54:47.322Z,117.18
2023-03-17T09:58:05.953Z,10.33
2023-03-17T10:01:23.525Z,3.55
2023-03-17T10:04:43.588Z,3.55
2023-03-17T10:08:29.014Z,3.50
2023-03-17T10:11:39.204Z,5.40
2023-03-17T10:15:07.618Z,3.53
2023-03-17T10:18:28.485Z,3.40
2023-03-17T10:21:50.649Z,3.93
2023-03-17T10:25:11.571Z,4.20
2023-03-17T10:28:39.562Z,4.58
2023-03-17T10:31:58.405Z,5.50
2023-03-17T10:35:18.809Z,6.13
2023-03-17T10:38:35.120Z,4.38
2023-03-17T10:42:02.325Z,4.73
2023-03-17T10:45:26.921Z,4.83
2023-03-17T10:48:46.341Z,4.13
2023-03-17T10:52:03.439Z,3.95
2023-03-17T10:55:27.272Z,4.03
2023-03-17T10:58:55.719Z,3.80
2023-03-17T11:02:24.292Z,69.98
2023-03-17T11:05:41.201Z,8.85
2023-03-17T11:09:02.446Z,4.58
2023-03-17T11:12:33.592Z,4.58
2023-03-17T11:15:57.338Z,2.95
2023-03-17T11:19:17.872Z,3.10
2023-03-17T11:22:40.911Z,3.65
2023-03-17T11:26:04.340Z,4.20
2023-03-17T11:29:33.370Z,3.68
2023-03-17T11:32:55.720Z,3.78
2023-03-17T11:36:23.079Z,4.08
2023-03-17T11:39:50.196Z,3.93
2023-03-17T11:43:19.282Z,4.13
2023-03-17T11:50:04.153Z,3.70
2023-03-17T11:53:32.242Z,4.10
2023-03-17T11:56:55.486Z,3.38
2023-03-17T12:00:21.500Z,3.73
2023-03-17T12:03:46.184Z,3.83
2023-03-17T12:07:11.477Z,3.90
2023-03-17T12:10:32.118Z,4.10
2023-03-17T12:13:52.414Z,3.95
2023-03-17T12:20:28.806Z,4.68
2023-03-17T12:23:51.612Z,4.35
2023-03-17T12:27:13.495Z,4.08
2023-03-17T12:30:37.912Z,4.05
2023-03-17T12:34:05.782Z,4.63
2023-03-17T12:37:23.460Z,4.45
2023-03-17T12:40:48.097Z,4.23
2023-03-17T12:44:15.056Z,5.33
2023-03-17T12:48:03.174Z,4.15
2023-03-17T12:51:42.091Z,4.60
2023-03-17T12:55:03.208Z,4.00
2023-03-17T12:58:37.169Z,3.95
2023-03-17T13:02:00.752Z,4.33
2023-03-17T13:05:27.858Z,4.43
2023-03-17T13:08:48.155Z,4.25
2023-03-17T13:12:05.721Z,4.25
2023-03-17T13:15:51.861Z,4.30
2023-03-17T13:19:25.567Z,4.48
2023-03-17T13:22:56.300Z,4.28
2023-03-17T13:26:22.709Z,4.05
2023-03-17T13:29:56.470Z,4.53
2023-03-17T13:33:42.816Z,4.18
2023-03-17T13:37:10.703Z,3.85
2023-03-17T13:40:31.544Z,3.70
2023-03-17T13:44:23.760Z,3.85
2023-03-17T13:47:46.625Z,4.13
2023-03-17T13:51:11.658Z,4.10
2023-03-17T13:54:40.025Z,3.95
2023-03-17T13:58:04.880Z,4.13
2023-03-17T14:01:23.326Z,4.35
2023-03-17T14:04:45.631Z,4.40
2023-03-17T14:08:07.233Z,4.35
2023-03-17T14:11:34.776Z,36.78
2023-03-17T14:15:03.413Z,7.08
2023-03-17T14:18:24.114Z,4.15
2023-03-17T14:21:46.131Z,3.95
2023-03-17T14:25:08.906Z,3.98
2023-03-17T14:28:32.624Z,3.98
2023-03-17T14:31:51.480Z,4.35
2023-03-17T14:35:09.239Z,3.73
2023-03-17T14:41:44.204Z,3.00
2023-03-17T14:46:04.579Z,3.20
2023-03-17T14:49:29.133Z,3.38
2023-03-17T14:52:46.684Z,3.30
2023-03-17T14:56:05.169Z,8.55
2023-03-17T14:59:34.336Z,3.40
2023-03-17T15:03:01.372Z,7.03
2023-03-17T15:06:35.693Z,3.40
2023-03-17T15:09:52.655Z,18.65
2023-03-17T15:13:17.453Z,7.48
2023-03-17T15:16:37.720Z,3.70
2023-03-17T15:19:58.048Z,3.45
2023-03-17T15:23:25.934Z,3.40
2023-03-17T15:26:45.059Z,3.75
2023-03-17T15:30:01.338Z,3.40
2023-03-17T15:33:38.349Z,3.18
2023-03-17T15:36:56.095Z,4.33
2023-03-17T15:40:16.733Z,3.80
2023-03-17T15:43:35.481Z,3.73
2023-03-17T15:46:55.301Z,3.90
2023-03-17T15:50:24.848Z,4.43
2023-03-17T15:53:42.740Z,3.93
2023-03-17T15:57:01.387Z,4.10
2023-03-17T16:00:30.387Z,4.75
2023-03-17T16:03:48.074Z,27.88
2023-03-17T16:07:04.374Z,11.50
2023-03-17T16:10:27.638Z,6.23
2023-03-17T16:13:43.906Z,5.60
2023-03-17T16:17:00.240Z,6.20
2023-03-17T16:20:26.910Z,5.53
2023-03-17T16:23:44.569Z,5.80
2023-03-17T16:27:00.724Z,5.70
2023-03-17T16:30:22.935Z,6.05
2023-03-17T16:33:44.554Z,6.40
2023-03-17T16:37:00.826Z,6.20
2023-03-17T16:40:28.608Z,7.00
2023-03-17T16:43:45.976Z,6.85
2023-03-17T16:47:04.723Z,7.00
2023-03-17T16:50:26.874Z,8.08
2023-03-17T16:53:43.264Z,7.25
2023-03-17T16:56:59.681Z,7.73
2023-03-17T17:00:23.123Z,8.00
2023-03-17T17:03:39.665Z,27.05
2023-03-17T17:06:56.558Z,25.05
2023-03-17T17:10:13.587Z,10.13
2023-03-17T17:13:29.688Z,9.78
2023-03-17T17:16:47.778Z,9.95
2023-03-17T17:20:04.058Z,10.33
2023-03-17T17:23:25.051Z,8.58
2023-03-17T17:26:41.153Z,9.38
2023-03-17T17:29:57.362Z,9.75
2023-03-17T17:33:14.139Z,9.70
2023-03-17T17:36:32.083Z,11.15
2023-03-17T17:39:48.148Z,11.88
2023-03-17T17:43:04.885Z,12.05
2023-03-17T17:46:24.507Z,12.95
2023-03-17T17:49:40.678Z,11.30
2023-03-17T17:52:58.572Z,12.13
2023-03-17T17:56:17.862Z,16.03
2023-03-17T17:59:34.801Z,12.68
2023-03-17T18:02:51.149Z,13.80
2023-03-17T18:06:08.004Z,12.83
2023-03-17T18:09:24.949Z,12.10
2023-03-17T18:12:41.293Z,13.00
2023-03-17T18:15:57.849Z,13.08
2023-03-17T18:19:17.016Z,12.88
2023-03-17T18:22:34.398Z,11.95
2023-03-17T18:25:50.683Z,12.10
2023-03-17T18:29:07.623Z,16.33
2023-03-17T18:32:25.663Z,13.43
2023-03-17T18:35:45.652Z,13.90
2023-03-17T18:39:02.374Z,69.83
2023-03-17T18:42:19.194Z,27.75
2023-03-17T18:45:35.994Z,16.80
2023-03-17T18:48:52.165Z,14.93
2023-03-17T18:52:08.730Z,15.60
2023-03-17T18:55:27.608Z,18.70
2023-03-17T18:58:43.661Z,15.55
2023-03-17T19:02:01.287Z,16.23
2023-03-17T19:05:21.145Z,15.53
2023-03-17T19:08:37.984Z,15.45
2023-03-17T19:11:54.246Z,15.95
2023-03-17T19:15:13.358Z,15.20
2023-03-17T19:18:29.962Z,15.45
2023-03-17T19:21:49.156Z,15.75
2023-03-17T19:25:05.856Z,15.00
2023-03-17T19:28:24.515Z,15.15
2023-03-17T19:31:42.361Z,15.55
2023-03-17T19:34:58.964Z,15.40
2023-03-17T19:38:15.338Z,15.33
2023-03-17T19:41:33.152Z,15.10
2023-03-17T19:44:50.835Z,15.88
2023-03-17T19:48:10.553Z,15.60
2023-03-17T19:51:27.858Z,14.88
2023-03-17T19:54:46.794Z,15.60
2023-03-17T19:58:04.910Z,16.05
2023-03-17T20:01:23.080Z,16.65
2023-03-17T20:04:39.571Z,16.63
2023-03-17T20:07:56.684Z,18.25
2023-03-17T20:11:14.384Z,18.85
2023-03-17T20:14:30.815Z,19.30
2023-03-17T20:17:52.177Z,20.33
2023-03-17T20:21:11.194Z,20.05
2023-03-17T20:24:29.475Z,19.00
2023-03-17T20:27:46.663Z,45.55
2023-03-17T20:31:08.801Z,21.95
2023-03-17T20:34:27.299Z,17.60
2023-03-17T20:37:47.475Z,17.10
2023-03-17T20:41:11.579Z,14.15
2023-03-17T20:44:29.216Z,15.10
2023-03-17T20:47:47.084Z,14.63
2023-03-17T20:51:07.243Z,18.00
2023-03-17T20:54:28.569Z,13.95
2023-03-17T20:57:52.252Z,13.73
2023-03-17T21:01:08.836Z,14.13
2023-03-17T21:04:25.610Z,12.70
2023-03-17T21:07:42.922Z,12.95
2023-03-17T21:10:59.184Z,12.35
2023-03-17T21:14:15.649Z,12.20
2023-03-17T21:17:35.729Z,12.30
2023-03-17T21:20:52.787Z,12.00
2023-03-17T21:24:09.187Z,12.53
2023-03-17T21:27:26.023Z,14.73
2023-03-17T21:30:43.165Z,14.43
2023-03-17T21:33:59.316Z,15.33
2023-03-17T21:37:16.827Z,15.70
2023-03-17T21:40:33.776Z,14.25
2023-03-17T21:43:52.958Z,13.90
2023-03-17T21:47:10.176Z,14.28
2023-03-17T21:50:26.731Z,13.85
2023-03-17T21:53:42.984Z,14.65
2023-03-17T21:57:02.496Z,14.70
2023-03-17T22:00:21.221Z,15.65
2023-03-17T22:03:38.188Z,15.33
2023-03-17T22:06:54.810Z,14.70
2023-03-17T22:10:12.650Z,15.23
2023-03-17T22:13:29.007Z,14.65
2023-03-17T22:16:45.273Z,15.80
2023-03-17T22:20:07.405Z,16.05
2023-03-17T22:23:23.564Z,15.93
2023-03-17T22:26:39.720Z,15.83
2023-03-17T22:29:56.404Z,15.15
2023-03-17T22:33:13.620Z,15.93
2023-03-17T22:36:30.528Z,15.45
2023-03-17T22:39:46.741Z,15.70
2023-03-17T22:43:04.913Z,16.00
2023-03-17T22:46:22.491Z,15.93
2023-03-17T22:49:39.087Z,14.78
2023-03-17T22:52:55.652Z,14.90
2023-03-17T22:56:13.806Z,15.15
2023-03-17T22:59:30.192Z,14.73
2023-03-17T23:02:46.828Z,14.50
2023-03-17T23:06:05.640Z,15.68
2023-03-17T23:09:21.869Z,14.38
2023-03-17T23:12:38.796Z,14.48
2023-03-17T23:15:55.263Z,15.68
2023-03-17T23:19:11.392Z,14.60
2023-03-17T23:22:27.511Z,15.08
2023-03-17T23:25:44.299Z,15.18
2023-03-17T23:29:00.643Z,15.68
2023-03-17T23:32:18.885Z,14.60
2023-03-17T23:35:36.703Z,14.33
2023-03-17T23:38:54.645Z,15.38
2023-03-17T23:42:12.008Z,14.30
2023-03-17T23:45:28.633Z,15.75
2023-03-17T23:48:45.322Z,15.08
2023-03-17T23:52:02.604Z,16.00
2023-03-17T23:55:22.653Z,15.50
2023-03-17T23:58:38.754Z,16.38
